»·PEaware :: ASA935 KGEG-KSEA

ASA935 :: KGEG-KSEA

FLIGHT INFORMATION

Flight Status: Arrived
Operator:
Alaska Airlines
More flights by this operator :: More flights under this callsign
Pilot: Michael S. (20314)
Aircraft: AIRBUS A321
(A321)
More flights by this aircraft type
Origin: KGEG Spokane Intl
United States
Destination: KSEA Seattle-Tacoma Intl
United States
More flights between these airports :: More routes between these airports
Route: GEG6 TEMPL GLASR1
File this flight plan on PilotEdge
Remarks: RMK / SIMBRIEF
Altitude:
(Current/Filed)
34,000ft
Speed:
(Current/Filed)
450kts
Departed: 20-Dec-21 11:53 AM
Arrived: 20-Dec-21 12:42 PM
Distance/Time
Traveled:
193nm/0:49
Distance/Time
To Go:
Arrived

Flight Plot

Page will automatically refresh every two minutes.

Flight plan parsing failed; only flown route is shown


Map Options




Map Legend


Flown Route
Filed Route
Departure Airport
Arrival Airport
Navaid (VOR, NDB)
Fix

Horizontal Profiles

Position Reports

Time Latitude Longitude Heading Altitude Ground
Speed
20-Dec-21 11:22 47.625198 -117.534021 316 2392ft 0kts
20-Dec-21 11:23 47.625198 -117.534021 316 2392ft 0kts
20-Dec-21 11:24 47.625198 -117.534021 316 2392ft 0kts
20-Dec-21 11:25 47.625198 -117.534021 316 2392ft 0kts
20-Dec-21 11:26 47.625198 -117.534021 316 2392ft 0kts
20-Dec-21 11:27 47.625198 -117.534021 316 2392ft 0kts
20-Dec-21 11:28 47.625198 -117.534021 316 2392ft 0kts
20-Dec-21 11:29 47.625198 -117.534021 316 2392ft 0kts
20-Dec-21 11:30 47.625198 -117.534021 316 2392ft 0kts
20-Dec-21 11:31 47.625198 -117.534021 316 2392ft 0kts
20-Dec-21 11:32 47.625198 -117.534021 316 2392ft 0kts
20-Dec-21 11:33 47.625198 -117.534021 316 2392ft 0kts
20-Dec-21 11:34 47.625198 -117.534021 316 2392ft 0kts
20-Dec-21 11:35 47.625198 -117.534021 316 2392ft 0kts
20-Dec-21 11:36 47.625198 -117.534021 316 2392ft 0kts
20-Dec-21 11:37 47.625198 -117.534021 316 2392ft 0kts
20-Dec-21 11:38 47.625198 -117.534021 316 2392ft 0kts
20-Dec-21 11:39 47.625198 -117.534021 316 2392ft 0kts
20-Dec-21 11:40 47.625198 -117.534021 316 2392ft 0kts
20-Dec-21 11:41 47.625198 -117.534021 316 2392ft 0kts
20-Dec-21 11:42 47.625198 -117.534021 316 2392ft 0kts
20-Dec-21 11:43 47.624924 -117.533407 265 2392ft 2kts
20-Dec-21 11:44 47.625056 -117.533026 224 2392ft 0kts
20-Dec-21 11:45 47.625056 -117.533026 224 2392ft 0kts
20-Dec-21 11:46 47.625056 -117.533026 224 2392ft 0kts
20-Dec-21 11:47 47.624087 -117.533026 49 2392ft 10kts
20-Dec-21 11:48 47.626682 -117.529242 43 2392ft 15kts
20-Dec-21 11:49 47.629935 -117.524312 43 2392ft 17kts
20-Dec-21 11:50 47.632110 -117.519788 133 2392ft 11kts
20-Dec-21 11:51 47.631424 -117.518764 137 2392ft 8kts
20-Dec-21 11:52 47.615930 -117.541617 226 2805ft 188kts
20-Dec-21 11:53 47.580488 -117.596384 226 5501ft 207kts
20-Dec-21 11:54 47.540928 -117.674380 268 7277ft 268kts
20-Dec-21 11:55 47.555328 -117.782034 278 10399ft 270kts
20-Dec-21 11:56 47.569336 -117.903228 278 11744ft 330kts
20-Dec-21 11:57 47.584186 -118.038584 277 14464ft 336kts
20-Dec-21 11:58 47.599347 -118.180205 277 16385ft 358kts
20-Dec-21 11:59 47.614808 -118.326529 277 18641ft 363kts
20-Dec-21 12:00 47.630366 -118.475909 276 20624ft 370kts
20-Dec-21 12:01 47.645918 -118.627405 275 22468ft 375kts
20-Dec-21 12:02 47.661848 -118.785191 274 23859ft 390kts
20-Dec-21 12:03 47.677414 -118.940789 274 26228ft 376kts
20-Dec-21 12:04 47.692256 -119.091541 274 28366ft 363kts
20-Dec-21 12:05 47.706416 -119.237098 273 30218ft 353kts
20-Dec-21 12:06 47.720115 -119.380292 274 31631ft 349kts
20-Dec-21 12:07 47.733156 -119.522369 273 32836ft 347kts
20-Dec-21 12:08 47.744296 -119.664213 273 33919ft 345kts
20-Dec-21 12:09 47.755508 -119.808217 274 34148ft 358kts
20-Dec-21 12:10 47.766816 -119.955216 274 34147ft 358kts
20-Dec-21 12:11 47.777931 -120.102438 274 34150ft 359kts
20-Dec-21 12:12 47.788899 -120.250078 273 34155ft 359kts
20-Dec-21 12:13 47.799607 -120.397107 273 34158ft 359kts
20-Dec-21 12:14 47.810165 -120.544333 273 34097ft 352kts
20-Dec-21 12:15 47.820121 -120.685313 271 32077ft 338kts
20-Dec-21 12:16 47.829735 -120.824892 270 29255ft 344kts
20-Dec-21 12:17 47.839480 -120.969692 270 25710ft 363kts
20-Dec-21 12:18 47.849551 -121.122093 272 21585ft 386kts
20-Dec-21 12:19 47.859926 -121.281214 273 18358ft 382kts
20-Dec-21 12:20 47.870062 -121.438987 273 18133ft 383kts
20-Dec-21 12:21 47.879084 -121.582541 273 18127ft 309kts
20-Dec-21 12:22 47.878638 -121.703602 246 17979ft 286kts
20-Dec-21 12:23 47.823264 -121.789110 226 14464ft 294kts
20-Dec-21 12:24 47.763905 -121.869396 225 12758ft 285kts
20-Dec-21 12:25 47.705548 -121.948106 225 11970ft 284kts
20-Dec-21 12:26 47.647175 -122.026577 225 11974ft 284kts
20-Dec-21 12:27 47.588580 -122.105137 225 11980ft 274kts
20-Dec-21 12:28 47.533543 -122.174555 206 11205ft 266kts
20-Dec-21 12:29 47.458203 -122.171405 178 9582ft 272kts
20-Dec-21 12:30 47.383700 -122.165489 178 8097ft 266kts
20-Dec-21 12:31 47.311486 -122.160939 178 7004ft 246kts
20-Dec-21 12:32 47.251976 -122.157503 178 7004ft 185kts
20-Dec-21 12:33 47.201399 -122.150710 160 5934ft 184kts
20-Dec-21 12:34 47.184763 -122.200970 275 5022ft 186kts
20-Dec-21 12:35 47.185843 -122.273843 273 4155ft 182kts
20-Dec-21 12:36 47.222720 -122.310043 3 3754ft 180kts
20-Dec-21 12:37 47.266492 -122.309485 1 3009ft 183kts
20-Dec-21 12:38 47.321010 -122.309042 2 2465ft 181kts
20-Dec-21 12:39 47.370159 -122.308549 1 1619ft 171kts
20-Dec-21 12:40 47.416805 -122.308144 1 763ft 167kts
20-Dec-21 12:41 47.454631 -122.307873 1 442ft 30kts
20-Dec-21 12:42 47.452273 -122.306259 180 442ft 22kts
20-Dec-21 12:43 47.449643 -122.303778 152 442ft 1kts

Navigation Log

Ident Type
Flight plan parsing failed, navigation log unavailable